sensor_id;sensor_type;location;lat;lon;timestamp;P1;durP1;ratioP1;P2;durP2;ratioP2
22603;SDS011;11469;49.024;8.246;2023-04-27T00:01:36;15.63;;;4.20;;
22603;SDS011;11469;49.024;8.246;2023-04-27T00:04:02;8.65;;;3.70;;
22603;SDS011;11469;49.024;8.246;2023-04-27T00:06:31;6.55;;;3.42;;
22603;SDS011;11469;49.024;8.246;2023-04-27T00:08:58;6.93;;;3.75;;
22603;SDS011;11469;49.024;8.246;2023-04-27T00:11:24;5.68;;;2.88;;
22603;SDS011;11469;49.024;8.246;2023-04-27T00:13:49;13.55;;;4.50;;
22603;SDS011;11469;49.024;8.246;2023-04-27T00:16:14;7.15;;;3.75;;
22603;SDS011;11469;49.024;8.246;2023-04-27T00:18:40;9.48;;;3.58;;
22603;SDS011;11469;49.024;8.246;2023-04-27T00:21:07;7.20;;;3.33;;
22603;SDS011;11469;49.024;8.246;2023-04-27T00:23:33;7.35;;;3.40;;
22603;SDS011;11469;49.024;8.246;2023-04-27T00:25:58;7.88;;;3.58;;
22603;SDS011;11469;49.024;8.246;2023-04-27T00:28:23;11.48;;;3.72;;
22603;SDS011;11469;49.024;8.246;2023-04-27T00:30:49;8.82;;;3.65;;
22603;SDS011;11469;49.024;8.246;2023-04-27T00:33:18;7.38;;;3.55;;
22603;SDS011;11469;49.024;8.246;2023-04-27T00:35:43;13.20;;;3.50;;
22603;SDS011;11469;49.024;8.246;2023-04-27T00:38:09;9.93;;;3.45;;
22603;SDS011;11469;49.024;8.246;2023-04-27T00:40:35;10.68;;;3.80;;
22603;SDS011;11469;49.024;8.246;2023-04-27T00:43:00;12.13;;;4.18;;
22603;SDS011;11469;49.024;8.246;2023-04-27T00:45:25;8.93;;;3.60;;
22603;SDS011;11469;49.024;8.246;2023-04-27T00:47:51;7.22;;;3.85;;
22603;SDS011;11469;49.024;8.246;2023-04-27T00:50:16;9.35;;;3.70;;
22603;SDS011;11469;49.024;8.246;2023-04-27T00:52:48;9.40;;;3.83;;
22603;SDS011;11469;49.024;8.246;2023-04-27T00:55:13;9.73;;;4.20;;
22603;SDS011;11469;49.024;8.246;2023-04-27T00:57:39;8.27;;;3.72;;
22603;SDS011;11469;49.024;8.246;2023-04-27T01:00:04;12.13;;;3.90;;
22603;SDS011;11469;49.024;8.246;2023-04-27T01:02:31;7.40;;;3.60;;
22603;SDS011;11469;49.024;8.246;2023-04-27T01:04:56;17.58;;;4.70;;
22603;SDS011;11469;49.024;8.246;2023-04-27T01:07:25;10.55;;;3.97;;
22603;SDS011;11469;49.024;8.246;2023-04-27T01:09:51;16.10;;;4.35;;
22603;SDS011;11469;49.024;8.246;2023-04-27T01:12:16;9.50;;;4.60;;
22603;SDS011;11469;49.024;8.246;2023-04-27T01:14:42;8.98;;;4.63;;
22603;SDS011;11469;49.024;8.246;2023-04-27T01:17:07;13.13;;;4.18;;
22603;SDS011;11469;49.024;8.246;2023-04-27T01:19:32;12.55;;;5.90;;
22603;SDS011;11469;49.024;8.246;2023-04-27T01:21:58;11.80;;;4.40;;
22603;SDS011;11469;49.024;8.246;2023-04-27T01:24:24;10.95;;;4.75;;
22603;SDS011;11469;49.024;8.246;2023-04-27T01:26:49;9.80;;;4.63;;
22603;SDS011;11469;49.024;8.246;2023-04-27T01:29:17;18.83;;;6.10;;
22603;SDS011;11469;49.024;8.246;2023-04-27T01:31:42;14.00;;;5.28;;
22603;SDS011;11469;49.024;8.246;2023-04-27T01:34:07;11.07;;;4.55;;
22603;SDS011;11469;49.024;8.246;2023-04-27T01:36:33;16.42;;;5.00;;
22603;SDS011;11469;49.024;8.246;2023-04-27T01:39:00;10.85;;;4.63;;
22603;SDS011;11469;49.024;8.246;2023-04-27T01:41:25;12.10;;;4.53;;
22603;SDS011;11469;49.024;8.246;2023-04-27T01:43:51;12.98;;;4.97;;
22603;SDS011;11469;49.024;8.246;2023-04-27T01:46:16;12.55;;;4.72;;
22603;SDS011;11469;49.024;8.246;2023-04-27T01:48:41;11.07;;;4.55;;
22603;SDS011;11469;49.024;8.246;2023-04-27T01:51:07;9.23;;;4.55;;
22603;SDS011;11469;49.024;8.246;2023-04-27T01:53:33;13.40;;;4.78;;
22603;SDS011;11469;49.024;8.246;2023-04-27T01:55:58;19.65;;;5.20;;
22603;SDS011;11469;49.024;8.246;2023-04-27T01:58:24;13.48;;;5.28;;
22603;SDS011;11469;49.024;8.246;2023-04-27T02:00:50;9.73;;;4.80;;
22603;SDS011;11469;49.024;8.246;2023-04-27T02:03:16;8.52;;;4.07;;
22603;SDS011;11469;49.024;8.246;2023-04-27T02:05:41;12.93;;;4.60;;
22603;SDS011;11469;49.024;8.246;2023-04-27T02:08:07;10.90;;;4.50;;
22603;SDS011;11469;49.024;8.246;2023-04-27T02:10:33;11.52;;;5.00;;
22603;SDS011;11469;49.024;8.246;2023-04-27T02:12:59;10.57;;;4.60;;
22603;SDS011;11469;49.024;8.246;2023-04-27T02:15:24;15.45;;;5.22;;
22603;SDS011;11469;49.024;8.246;2023-04-27T02:17:49;9.57;;;4.50;;
22603;SDS011;11469;49.024;8.246;2023-04-27T02:20:15;12.70;;;4.68;;
22603;SDS011;11469;49.024;8.246;2023-04-27T02:22:40;8.98;;;4.18;;
22603;SDS011;11469;49.024;8.246;2023-04-27T02:25:10;10.40;;;4.32;;
22603;SDS011;11469;49.024;8.246;2023-04-27T02:27:44;14.35;;;4.40;;
22603;SDS011;11469;49.024;8.246;2023-04-27T02:30:10;14.32;;;4.60;;
22603;SDS011;11469;49.024;8.246;2023-04-27T02:32:36;10.73;;;4.03;;
22603;SDS011;11469;49.024;8.246;2023-04-27T02:35:02;13.27;;;6.03;;
22603;SDS011;11469;49.024;8.246;2023-04-27T02:37:28;9.73;;;4.03;;
22603;SDS011;11469;49.024;8.246;2023-04-27T02:39:54;7.28;;;4.40;;
22603;SDS011;11469;49.024;8.246;2023-04-27T02:42:19;11.90;;;4.50;;
22603;SDS011;11469;49.024;8.246;2023-04-27T02:44:45;10.13;;;4.53;;
22603;SDS011;11469;49.024;8.246;2023-04-27T02:47:10;11.52;;;4.72;;
22603;SDS011;11469;49.024;8.246;2023-04-27T02:49:36;15.10;;;5.10;;
22603;SDS011;11469;49.024;8.246;2023-04-27T02:52:02;15.05;;;5.13;;
22603;SDS011;11469;49.024;8.246;2023-04-27T02:54:28;11.15;;;4.82;;
22603;SDS011;11469;49.024;8.246;2023-04-27T02:56:53;10.88;;;5.18;;
22603;SDS011;11469;49.024;8.246;2023-04-27T02:59:21;15.55;;;5.32;;
22603;SDS011;11469;49.024;8.246;2023-04-27T03:01:46;13.77;;;4.38;;
22603;SDS011;11469;49.024;8.246;2023-04-27T03:04:12;7.78;;;4.43;;
22603;SDS011;11469;49.024;8.246;2023-04-27T03:06:41;11.55;;;4.82;;
22603;SDS011;11469;49.024;8.246;2023-04-27T03:09:06;10.77;;;4.25;;
22603;SDS011;11469;49.024;8.246;2023-04-27T03:11:34;14.02;;;4.82;;
22603;SDS011;11469;49.024;8.246;2023-04-27T03:14:00;12.85;;;4.95;;
22603;SDS011;11469;49.024;8.246;2023-04-27T03:16:25;11.75;;;5.05;;
22603;SDS011;11469;49.024;8.246;2023-04-27T03:18:50;10.50;;;4.32;;
22603;SDS011;11469;49.024;8.246;2023-04-27T03:21:16;11.93;;;5.38;;
22603;SDS011;11469;49.024;8.246;2023-04-27T03:23:41;14.27;;;4.72;;
22603;SDS011;11469;49.024;8.246;2023-04-27T03:26:07;9.23;;;4.70;;
22603;SDS011;11469;49.024;8.246;2023-04-27T03:28:33;21.05;;;5.35;;
22603;SDS011;11469;49.024;8.246;2023-04-27T03:31:03;11.55;;;4.90;;
22603;SDS011;11469;49.024;8.246;2023-04-27T03:33:33;13.65;;;4.22;;
22603;SDS011;11469;49.024;8.246;2023-04-27T03:35:58;8.38;;;3.90;;
22603;SDS011;11469;49.024;8.246;2023-04-27T03:38:25;10.63;;;4.20;;
22603;SDS011;11469;49.024;8.246;2023-04-27T03:40:51;13.52;;;4.47;;
22603;SDS011;11469;49.024;8.246;2023-04-27T03:43:18;14.32;;;4.05;;
22603;SDS011;11469;49.024;8.246;2023-04-27T03:45:44;15.32;;;5.22;;
22603;SDS011;11469;49.024;8.246;2023-04-27T03:48:10;9.35;;;4.55;;
22603;SDS011;11469;49.024;8.246;2023-04-27T03:50:35;14.05;;;4.30;;
22603;SDS011;11469;49.024;8.246;2023-04-27T03:53:01;9.80;;;4.65;;
22603;SDS011;11469;49.024;8.246;2023-04-27T03:55:26;8.40;;;3.97;;
22603;SDS011;11469;49.024;8.246;2023-04-27T03:57:52;14.02;;;4.03;;
22603;SDS011;11469;49.024;8.246;2023-04-27T04:00:17;8.40;;;4.40;;
22603;SDS011;11469;49.024;8.246;2023-04-27T04:02:43;11.30;;;4.45;;
22603;SDS011;11469;49.024;8.246;2023-04-27T04:05:09;9.55;;;4.18;;
22603;SDS011;11469;49.024;8.246;2023-04-27T04:07:35;10.60;;;4.03;;
22603;SDS011;11469;49.024;8.246;2023-04-27T04:10:00;12.93;;;4.15;;
22603;SDS011;11469;49.024;8.246;2023-04-27T04:12:26;9.30;;;4.47;;
22603;SDS011;11469;49.024;8.246;2023-04-27T04:14:51;12.00;;;4.13;;
22603;SDS011;11469;49.024;8.246;2023-04-27T04:17:17;11.88;;;5.13;;
22603;SDS011;11469;49.024;8.246;2023-04-27T04:19:42;8.32;;;3.80;;
22603;SDS011;11469;49.024;8.246;2023-04-27T04:22:08;7.32;;;4.35;;
22603;SDS011;11469;49.024;8.246;2023-04-27T04:24:33;8.43;;;4.20;;
22603;SDS011;11469;49.024;8.246;2023-04-27T04:26:58;12.65;;;4.20;;
22603;SDS011;11469;49.024;8.246;2023-04-27T04:29:24;11.57;;;4.50;;
22603;SDS011;11469;49.024;8.246;2023-04-27T04:31:50;10.43;;;4.43;;
22603;SDS011;11469;49.024;8.246;2023-04-27T04:34:15;11.82;;;4.53;;
22603;SDS011;11469;49.024;8.246;2023-04-27T04:36:41;16.05;;;4.70;;
22603;SDS011;11469;49.024;8.246;2023-04-27T04:39:07;12.30;;;4.15;;
22603;SDS011;11469;49.024;8.246;2023-04-27T04:41:32;19.08;;;4.72;;
22603;SDS011;11469;49.024;8.246;2023-04-27T04:43:58;14.63;;;4.60;;
22603;SDS011;11469;49.024;8.246;2023-04-27T04:46:23;9.63;;;3.75;;
22603;SDS011;11469;49.024;8.246;2023-04-27T04:48:49;9.57;;;3.60;;
22603;SDS011;11469;49.024;8.246;2023-04-27T04:51:15;9.02;;;4.50;;
22603;SDS011;11469;49.024;8.246;2023-04-27T04:53:41;12.98;;;4.03;;
22603;SDS011;11469;49.024;8.246;2023-04-27T04:56:15;9.90;;;4.15;;
22603;SDS011;11469;49.024;8.246;2023-04-27T04:58:41;13.57;;;3.88;;
22603;SDS011;11469;49.024;8.246;2023-04-27T05:01:06;13.80;;;4.22;;
22603;SDS011;11469;49.024;8.246;2023-04-27T05:03:32;8.63;;;3.33;;
22603;SDS011;11469;49.024;8.246;2023-04-27T05:05:57;11.43;;;4.10;;
22603;SDS011;11469;49.024;8.246;2023-04-27T05:08:23;10.73;;;4.03;;
22603;SDS011;11469;49.024;8.246;2023-04-27T05:10:49;12.77;;;4.10;;
22603;SDS011;11469;49.024;8.246;2023-04-27T05:13:14;10.85;;;3.40;;
22603;SDS011;11469;49.024;8.246;2023-04-27T05:15:40;12.70;;;4.05;;
22603;SDS011;11469;49.024;8.246;2023-04-27T05:18:05;12.30;;;4.82;;
22603;SDS011;11469;49.024;8.246;2023-04-27T05:20:33;12.60;;;4.65;;
22603;SDS011;11469;49.024;8.246;2023-04-27T05:22:59;12.77;;;3.80;;
22603;SDS011;11469;49.024;8.246;2023-04-27T05:25:25;12.07;;;3.63;;
22603;SDS011;11469;49.024;8.246;2023-04-27T05:27:53;11.02;;;3.75;;
22603;SDS011;11469;49.024;8.246;2023-04-27T05:30:18;6.47;;;3.50;;
22603;SDS011;11469;49.024;8.246;2023-04-27T05:32:44;13.52;;;3.70;;
22603;SDS011;11469;49.024;8.246;2023-04-27T05:35:09;9.65;;;3.47;;
22603;SDS011;11469;49.024;8.246;2023-04-27T05:37:35;10.63;;;3.38;;
22603;SDS011;11469;49.024;8.246;2023-04-27T05:40:00;8.93;;;3.70;;
22603;SDS011;11469;49.024;8.246;2023-04-27T05:42:26;8.32;;;3.15;;
22603;SDS011;11469;49.024;8.246;2023-04-27T05:44:51;12.55;;;3.85;;
22603;SDS011;11469;49.024;8.246;2023-04-27T05:47:16;13.85;;;3.40;;
22603;SDS011;11469;49.024;8.246;2023-04-27T05:49:42;11.32;;;3.30;;
22603;SDS011;11469;49.024;8.246;2023-04-27T05:52:07;10.50;;;3.75;;
22603;SDS011;11469;49.024;8.246;2023-04-27T05:54:33;11.18;;;3.05;;
22603;SDS011;11469;49.024;8.246;2023-04-27T05:56:58;8.82;;;3.30;;
22603;SDS011;11469;49.024;8.246;2023-04-27T05:59:23;10.93;;;3.25;;
22603;SDS011;11469;49.024;8.246;2023-04-27T06:01:49;10.43;;;3.00;;
22603;SDS011;11469;49.024;8.246;2023-04-27T06:04:14;18.55;;;4.10;;
22603;SDS011;11469;49.024;8.246;2023-04-27T06:06:40;8.52;;;3.80;;
22603;SDS011;11469;49.024;8.246;2023-04-27T06:09:05;12.68;;;3.80;;
22603;SDS011;11469;49.024;8.246;2023-04-27T06:11:31;11.90;;;3.60;;
22603;SDS011;11469;49.024;8.246;2023-04-27T06:13:56;8.55;;;3.83;;
22603;SDS011;11469;49.024;8.246;2023-04-27T06:16:21;7.68;;;3.58;;
22603;SDS011;11469;49.024;8.246;2023-04-27T06:18:48;10.15;;;4.63;;
22603;SDS011;11469;49.024;8.246;2023-04-27T06:21:14;16.23;;;4.00;;
22603;SDS011;11469;49.024;8.246;2023-04-27T06:23:40;14.70;;;4.05;;
22603;SDS011;11469;49.024;8.246;2023-04-27T06:26:05;11.40;;;5.28;;
22603;SDS011;11469;49.024;8.246;2023-04-27T06:28:31;10.48;;;3.95;;
22603;SDS011;11469;49.024;8.246;2023-04-27T06:30:56;8.38;;;3.78;;
22603;SDS011;11469;49.024;8.246;2023-04-27T06:33:21;13.43;;;4.28;;
22603;SDS011;11469;49.024;8.246;2023-04-27T06:35:47;12.48;;;4.40;;
22603;SDS011;11469;49.024;8.246;2023-04-27T06:38:12;15.65;;;4.50;;
22603;SDS011;11469;49.024;8.246;2023-04-27T06:40:37;22.05;;;5.13;;
22603;SDS011;11469;49.024;8.246;2023-04-27T06:43:04;10.45;;;4.65;;
22603;SDS011;11469;49.024;8.246;2023-04-27T06:45:29;10.23;;;4.65;;
22603;SDS011;11469;49.024;8.246;2023-04-27T06:47:54;16.08;;;4.30;;
22603;SDS011;11469;49.024;8.246;2023-04-27T06:50:20;12.77;;;3.70;;
22603;SDS011;11469;49.024;8.246;2023-04-27T06:52:45;15.68;;;3.85;;
22603;SDS011;11469;49.024;8.246;2023-04-27T06:55:10;16.40;;;4.35;;
22603;SDS011;11469;49.024;8.246;2023-04-27T06:57:36;10.40;;;4.00;;
22603;SDS011;11469;49.024;8.246;2023-04-27T07:00:02;11.63;;;4.07;;
22603;SDS011;11469;49.024;8.246;2023-04-27T07:02:29;19.20;;;4.47;;
22603;SDS011;11469;49.024;8.246;2023-04-27T07:04:54;13.48;;;4.38;;
22603;SDS011;11469;49.024;8.246;2023-04-27T07:07:19;12.90;;;4.68;;
22603;SDS011;11469;49.024;8.246;2023-04-27T07:09:45;13.70;;;4.05;;
22603;SDS011;11469;49.024;8.246;2023-04-27T07:12:10;9.65;;;4.07;;
22603;SDS011;11469;49.024;8.246;2023-04-27T07:14:35;12.48;;;4.50;;
22603;SDS011;11469;49.024;8.246;2023-04-27T07:17:01;13.70;;;4.05;;
22603;SDS011;11469;49.024;8.246;2023-04-27T07:19:27;13.82;;;4.07;;
22603;SDS011;11469;49.024;8.246;2023-04-27T07:21:52;11.55;;;3.80;;
22603;SDS011;11469;49.024;8.246;2023-04-27T07:24:17;11.30;;;4.20;;
22603;SDS011;11469;49.024;8.246;2023-04-27T07:26:44;8.27;;;3.85;;
22603;SDS011;11469;49.024;8.246;2023-04-27T07:29:09;10.45;;;4.57;;
22603;SDS011;11469;49.024;8.246;2023-04-27T07:31:36;12.90;;;4.90;;
22603;SDS011;11469;49.024;8.246;2023-04-27T07:34:02;12.20;;;4.93;;
22603;SDS011;11469;49.024;8.246;2023-04-27T07:36:27;7.30;;;3.75;;
22603;SDS011;11469;49.024;8.246;2023-04-27T07:38:53;10.63;;;4.40;;
22603;SDS011;11469;49.024;8.246;2023-04-27T07:41:18;12.68;;;4.20;;
22603;SDS011;11469;49.024;8.246;2023-04-27T07:43:44;9.95;;;4.15;;
22603;SDS011;11469;49.024;8.246;2023-04-27T07:46:09;9.02;;;4.10;;
22603;SDS011;11469;49.024;8.246;2023-04-27T07:48:35;12.52;;;4.03;;
22603;SDS011;11469;49.024;8.246;2023-04-27T07:51:01;16.60;;;4.28;;
22603;SDS011;11469;49.024;8.246;2023-04-27T07:53:26;20.98;;;4.50;;
22603;SDS011;11469;49.024;8.246;2023-04-27T07:55:52;11.48;;;4.40;;
22603;SDS011;11469;49.024;8.246;2023-04-27T07:58:17;11.15;;;4.82;;
22603;SDS011;11469;49.024;8.246;2023-04-27T08:00:44;10.23;;;4.72;;
22603;SDS011;11469;49.024;8.246;2023-04-27T08:03:10;10.32;;;4.53;;
22603;SDS011;11469;49.024;8.246;2023-04-27T08:05:35;9.88;;;4.22;;
22603;SDS011;11469;49.024;8.246;2023-04-27T08:08:01;14.30;;;4.60;;
22603;SDS011;11469;49.024;8.246;2023-04-27T08:10:26;12.43;;;4.05;;
22603;SDS011;11469;49.024;8.246;2023-04-27T08:12:52;11.82;;;4.88;;
22603;SDS011;11469;49.024;8.246;2023-04-27T08:15:17;13.85;;;4.88;;
22603;SDS011;11469;49.024;8.246;2023-04-27T08:17:43;18.48;;;5.80;;
22603;SDS011;11469;49.024;8.246;2023-04-27T08:20:08;8.80;;;4.05;;
22603;SDS011;11469;49.024;8.246;2023-04-27T08:22:38;10.00;;;4.30;;
22603;SDS011;11469;49.024;8.246;2023-04-27T08:25:04;11.00;;;4.45;;
22603;SDS011;11469;49.024;8.246;2023-04-27T08:27:31;13.95;;;4.45;;
22603;SDS011;11469;49.024;8.246;2023-04-27T08:29:57;7.75;;;4.32;;
22603;SDS011;11469;49.024;8.246;2023-04-27T08:32:24;10.35;;;5.07;;
22603;SDS011;11469;49.024;8.246;2023-04-27T08:34:50;10.65;;;4.25;;
22603;SDS011;11469;49.024;8.246;2023-04-27T08:37:16;10.68;;;4.30;;
22603;SDS011;11469;49.024;8.246;2023-04-27T08:39:42;9.57;;;4.30;;
22603;SDS011;11469;49.024;8.246;2023-04-27T08:42:11;16.52;;;3.88;;
22603;SDS011;11469;49.024;8.246;2023-04-27T08:44:38;12.48;;;4.50;;
22603;SDS011;11469;49.024;8.246;2023-04-27T08:47:04;13.95;;;5.18;;
22603;SDS011;11469;49.024;8.246;2023-04-27T08:49:29;14.88;;;4.68;;
22603;SDS011;11469;49.024;8.246;2023-04-27T08:51:55;11.43;;;4.90;;
22603;SDS011;11469;49.024;8.246;2023-04-27T08:54:20;9.38;;;4.00;;
22603;SDS011;11469;49.024;8.246;2023-04-27T08:56:46;17.10;;;4.45;;
22603;SDS011;11469;49.024;8.246;2023-04-27T08:59:12;10.30;;;4.60;;
22603;SDS011;11469;49.024;8.246;2023-04-27T09:01:42;10.18;;;4.47;;
22603;SDS011;11469;49.024;8.246;2023-04-27T09:04:12;20.35;;;5.45;;
22603;SDS011;11469;49.024;8.246;2023-04-27T09:06:38;10.65;;;5.20;;
22603;SDS011;11469;49.024;8.246;2023-04-27T09:09:03;18.27;;;5.97;;
22603;SDS011;11469;49.024;8.246;2023-04-27T09:11:34;17.08;;;5.35;;
22603;SDS011;11469;49.024;8.246;2023-04-27T09:14:03;18.63;;;4.57;;
22603;SDS011;11469;49.024;8.246;2023-04-27T09:16:41;15.85;;;5.65;;
22603;SDS011;11469;49.024;8.246;2023-04-27T09:19:07;13.50;;;5.47;;
22603;SDS011;11469;49.024;8.246;2023-04-27T09:21:32;11.43;;;5.10;;
22603;SDS011;11469;49.024;8.246;2023-04-27T09:24:08;14.60;;;5.10;;
22603;SDS011;11469;49.024;8.246;2023-04-27T09:26:35;13.05;;;5.25;;
22603;SDS011;11469;49.024;8.246;2023-04-27T09:29:01;15.90;;;6.20;;
22603;SDS011;11469;49.024;8.246;2023-04-27T09:31:30;11.18;;;5.72;;
22603;SDS011;11469;49.024;8.246;2023-04-27T09:33:56;15.23;;;5.70;;
22603;SDS011;11469;49.024;8.246;2023-04-27T09:36:22;14.15;;;6.28;;
22603;SDS011;11469;49.024;8.246;2023-04-27T09:38:50;14.38;;;6.05;;
22603;SDS011;11469;49.024;8.246;2023-04-27T09:41:16;17.90;;;5.60;;
22603;SDS011;11469;49.024;8.246;2023-04-27T09:43:42;20.48;;;6.28;;
22603;SDS011;11469;49.024;8.246;2023-04-27T09:46:09;16.55;;;7.00;;
22603;SDS011;11469;49.024;8.246;2023-04-27T09:48:37;11.15;;;5.80;;
22603;SDS011;11469;49.024;8.246;2023-04-27T09:51:03;13.30;;;6.30;;
22603;SDS011;11469;49.024;8.246;2023-04-27T09:53:29;10.10;;;6.22;;
22603;SDS011;11469;49.024;8.246;2023-04-27T10:01:12;14.93;;;7.15;;
22603;SDS011;11469;49.024;8.246;2023-04-27T10:09:12;16.98;;;8.27;;
22603;SDS011;11469;49.024;8.246;2023-04-27T10:11:38;14.85;;;7.97;;
22603;SDS011;11469;49.024;8.246;2023-04-27T10:14:16;19.33;;;9.00;;
22603;SDS011;11469;49.024;8.246;2023-04-27T10:16:43;19.90;;;7.68;;
22603;SDS011;11469;49.024;8.246;2023-04-27T10:19:11;17.98;;;7.90;;
22603;SDS011;11469;49.024;8.246;2023-04-27T10:21:38;15.13;;;6.68;;
22603;SDS011;11469;49.024;8.246;2023-04-27T10:24:19;14.18;;;5.80;;
22603;SDS011;11469;49.024;8.246;2023-04-27T10:26:59;14.02;;;5.72;;
22603;SDS011;11469;49.024;8.246;2023-04-27T10:29:33;10.65;;;5.32;;
22603;SDS011;11469;49.024;8.246;2023-04-27T10:32:04;9.43;;;4.50;;
22603;SDS011;11469;49.024;8.246;2023-04-27T10:34:33;9.13;;;4.75;;
22603;SDS011;11469;49.024;8.246;2023-04-27T10:37:07;13.05;;;4.88;;
22603;SDS011;11469;49.024;8.246;2023-04-27T10:39:34;11.38;;;4.93;;
22603;SDS011;11469;49.024;8.246;2023-04-27T10:42:04;13.32;;;5.13;;
22603;SDS011;11469;49.024;8.246;2023-04-27T10:44:32;19.67;;;5.88;;
22603;SDS011;11469;49.024;8.246;2023-04-27T10:46:59;10.02;;;4.85;;
22603;SDS011;11469;49.024;8.246;2023-04-27T10:49:29;9.70;;;4.88;;
22603;SDS011;11469;49.024;8.246;2023-04-27T10:51:58;18.25;;;4.45;;
22603;SDS011;11469;49.024;8.246;2023-04-27T10:54:27;12.77;;;5.47;;
22603;SDS011;11469;49.024;8.246;2023-04-27T10:56:53;9.70;;;4.18;;
22603;SDS011;11469;49.024;8.246;2023-04-27T10:59:26;10.13;;;4.82;;
22603;SDS011;11469;49.024;8.246;2023-04-27T11:01:51;11.82;;;4.35;;
22603;SDS011;11469;49.024;8.246;2023-04-27T11:04:16;10.77;;;4.32;;
22603;SDS011;11469;49.024;8.246;2023-04-27T11:06:43;13.07;;;4.65;;
22603;SDS011;11469;49.024;8.246;2023-04-27T11:09:12;12.95;;;5.03;;
22603;SDS011;11469;49.024;8.246;2023-04-27T11:11:42;12.20;;;4.97;;
22603;SDS011;11469;49.024;8.246;2023-04-27T11:14:08;15.27;;;4.82;;
22603;SDS011;11469;49.024;8.246;2023-04-27T11:16:33;12.50;;;4.85;;
22603;SDS011;11469;49.024;8.246;2023-04-27T11:19:05;8.52;;;3.83;;
22603;SDS011;11469;49.024;8.246;2023-04-27T11:21:31;16.10;;;4.97;;
22603;SDS011;11469;49.024;8.246;2023-04-27T11:24:02;13.20;;;4.68;;
22603;SDS011;11469;49.024;8.246;2023-04-27T11:26:28;13.30;;;5.10;;
22603;SDS011;11469;49.024;8.246;2023-04-27T11:31:45;10.80;;;4.55;;
22603;SDS011;11469;49.024;8.246;2023-04-27T11:34:31;9.88;;;4.63;;
22603;SDS011;11469;49.024;8.246;2023-04-27T11:37:04;14.88;;;4.65;;
22603;SDS011;11469;49.024;8.246;2023-04-27T11:39:37;15.00;;;5.05;;
22603;SDS011;11469;49.024;8.246;2023-04-27T11:44:54;11.95;;;4.68;;
22603;SDS011;11469;49.024;8.246;2023-04-27T11:47:20;12.25;;;4.65;;
22603;SDS011;11469;49.024;8.246;2023-04-27T11:49:47;13.48;;;4.57;;
22603;SDS011;11469;49.024;8.246;2023-04-27T11:52:13;14.88;;;5.25;;
22603;SDS011;11469;49.024;8.246;2023-04-27T11:54:45;12.13;;;5.20;;
22603;SDS011;11469;49.024;8.246;2023-04-27T11:57:11;10.55;;;4.90;;
22603;SDS011;11469;49.024;8.246;2023-04-27T11:59:37;10.15;;;4.95;;
22603;SDS011;11469;49.024;8.246;2023-04-27T12:02:02;8.45;;;4.00;;
22603;SDS011;11469;49.024;8.246;2023-04-27T12:04:28;7.40;;;3.80;;
22603;SDS011;11469;49.024;8.246;2023-04-27T12:06:54;9.63;;;3.78;;
22603;SDS011;11469;49.024;8.246;2023-04-27T12:09:20;16.92;;;4.55;;
22603;SDS011;11469;49.024;8.246;2023-04-27T12:11:46;7.75;;;4.32;;
22603;SDS011;11469;49.024;8.246;2023-04-27T12:14:11;11.18;;;4.30;;
22603;SDS011;11469;49.024;8.246;2023-04-27T12:16:37;7.97;;;3.97;;
22603;SDS011;11469;49.024;8.246;2023-04-27T12:19:03;10.15;;;4.57;;
22603;SDS011;11469;49.024;8.246;2023-04-27T12:21:28;11.52;;;5.38;;
22603;SDS011;11469;49.024;8.246;2023-04-27T12:23:56;10.88;;;4.93;;
22603;SDS011;11469;49.024;8.246;2023-04-27T12:26:21;11.23;;;3.90;;
22603;SDS011;11469;49.024;8.246;2023-04-27T12:28:46;7.30;;;3.42;;
22603;SDS011;11469;49.024;8.246;2023-04-27T12:31:15;12.43;;;4.88;;
22603;SDS011;11469;49.024;8.246;2023-04-27T12:33:42;10.30;;;3.88;;
22603;SDS011;11469;49.024;8.246;2023-04-27T12:36:08;7.43;;;3.42;;
22603;SDS011;11469;49.024;8.246;2023-04-27T12:38:33;7.32;;;3.90;;
22603;SDS011;11469;49.024;8.246;2023-04-27T12:40:59;9.43;;;3.65;;
22603;SDS011;11469;49.024;8.246;2023-04-27T12:43:26;8.13;;;4.00;;
22603;SDS011;11469;49.024;8.246;2023-04-27T12:45:52;8.20;;;4.30;;
22603;SDS011;11469;49.024;8.246;2023-04-27T12:48:17;6.65;;;3.35;;
22603;SDS011;11469;49.024;8.246;2023-04-27T12:50:43;9.13;;;3.75;;
22603;SDS011;11469;49.024;8.246;2023-04-27T12:53:08;10.43;;;4.18;;
22603;SDS011;11469;49.024;8.246;2023-04-27T12:55:34;11.23;;;3.63;;
22603;SDS011;11469;49.024;8.246;2023-04-27T12:58:01;9.93;;;4.05;;
22603;SDS011;11469;49.024;8.246;2023-04-27T13:00:27;11.65;;;4.28;;
22603;SDS011;11469;49.024;8.246;2023-04-27T13:02:53;14.02;;;3.92;;
22603;SDS011;11469;49.024;8.246;2023-04-27T13:05:19;10.75;;;3.65;;
22603;SDS011;11469;49.024;8.246;2023-04-27T13:07:46;13.88;;;3.58;;
22603;SDS011;11469;49.024;8.246;2023-04-27T13:10:11;8.25;;;3.13;;
22603;SDS011;11469;49.024;8.246;2023-04-27T13:12:37;10.50;;;3.35;;
22603;SDS011;11469;49.024;8.246;2023-04-27T13:15:02;14.55;;;3.67;;
22603;SDS011;11469;49.024;8.246;2023-04-27T13:17:28;8.93;;;2.78;;
22603;SDS011;11469;49.024;8.246;2023-04-27T13:19:53;10.23;;;3.10;;
22603;SDS011;11469;49.024;8.246;2023-04-27T13:22:18;13.23;;;2.92;;
22603;SDS011;11469;49.024;8.246;2023-04-27T13:24:45;6.72;;;2.72;;
22603;SDS011;11469;49.024;8.246;2023-04-27T13:27:11;11.45;;;3.20;;
22603;SDS011;11469;49.024;8.246;2023-04-27T13:29:36;8.35;;;2.80;;
22603;SDS011;11469;49.024;8.246;2023-04-27T13:32:02;8.52;;;2.55;;
22603;SDS011;11469;49.024;8.246;2023-04-27T13:34:27;8.05;;;2.90;;
22603;SDS011;11469;49.024;8.246;2023-04-27T13:36:54;7.05;;;2.40;;
22603;SDS011;11469;49.024;8.246;2023-04-27T13:39:19;6.47;;;2.53;;
22603;SDS011;11469;49.024;8.246;2023-04-27T13:41:46;9.57;;;2.75;;
22603;SDS011;11469;49.024;8.246;2023-04-27T13:44:11;12.75;;;2.95;;
22603;SDS011;11469;49.024;8.246;2023-04-27T13:46:37;8.20;;;2.63;;
22603;SDS011;11469;49.024;8.246;2023-04-27T13:49:02;4.88;;;2.35;;
22603;SDS011;11469;49.024;8.246;2023-04-27T13:51:28;9.32;;;2.50;;
22603;SDS011;11469;49.024;8.246;2023-04-27T13:53:54;5.45;;;2.40;;
22603;SDS011;11469;49.024;8.246;2023-04-27T13:56:19;7.57;;;2.20;;
22603;SDS011;11469;49.024;8.246;2023-04-27T13:58:45;5.07;;;1.88;;
22603;SDS011;11469;49.024;8.246;2023-04-27T14:01:11;9.43;;;2.55;;
22603;SDS011;11469;49.024;8.246;2023-04-27T14:03:36;5.97;;;2.20;;
22603;SDS011;11469;49.024;8.246;2023-04-27T14:06:02;9.85;;;2.30;;
22603;SDS011;11469;49.024;8.246;2023-04-27T14:08:27;5.88;;;2.30;;
22603;SDS011;11469;49.024;8.246;2023-04-27T14:10:52;6.15;;;2.00;;
22603;SDS011;11469;49.024;8.246;2023-04-27T14:13:18;6.65;;;2.10;;
22603;SDS011;11469;49.024;8.246;2023-04-27T14:15:44;5.18;;;2.00;;
22603;SDS011;11469;49.024;8.246;2023-04-27T14:18:10;2.17;;;1.30;;
22603;SDS011;11469;49.024;8.246;2023-04-27T14:20:36;4.85;;;1.83;;
22603;SDS011;11469;49.024;8.246;2023-04-27T14:23:03;2.28;;;1.17;;
22603;SDS011;11469;49.024;8.246;2023-04-27T14:25:29;7.70;;;2.08;;
22603;SDS011;11469;49.024;8.246;2023-04-27T14:27:59;4.90;;;1.95;;
22603;SDS011;11469;49.024;8.246;2023-04-27T14:30:25;6.20;;;2.00;;
22603;SDS011;11469;49.024;8.246;2023-04-27T14:32:51;9.75;;;1.60;;
22603;SDS011;11469;49.024;8.246;2023-04-27T14:35:17;10.05;;;2.10;;
22603;SDS011;11469;49.024;8.246;2023-04-27T14:37:44;5.85;;;1.83;;
22603;SDS011;11469;49.024;8.246;2023-04-27T14:40:09;4.07;;;1.77;;
22603;SDS011;11469;49.024;8.246;2023-04-27T14:42:35;5.25;;;1.70;;
22603;SDS011;11469;49.024;8.246;2023-04-27T14:45:01;3.92;;;1.88;;
22603;SDS011;11469;49.024;8.246;2023-04-27T14:47:26;4.20;;;1.70;;
22603;SDS011;11469;49.024;8.246;2023-04-27T14:49:52;4.32;;;1.40;;